sensor_id;sensor_type;location;lat;lon;timestamp;temperature;humidity
43627;DHT22;29217;52.586;13.442;2024-03-02T00:01:07;6.20;99.90
43627;DHT22;29217;52.586;13.442;2024-03-02T00:03:33;6.40;99.90
43627;DHT22;29217;52.586;13.442;2024-03-02T00:05:59;6.30;99.90
43627;DHT22;29217;52.586;13.442;2024-03-02T00:08:25;6.40;99.90
43627;DHT22;29217;52.586;13.442;2024-03-02T00:10:51;6.10;99.90
43627;DHT22;29217;52.586;13.442;2024-03-02T00:13:20;6.20;99.90
43627;DHT22;29217;52.586;13.442;2024-03-02T00:15:54;6.30;99.90
43627;DHT22;29217;52.586;13.442;2024-03-02T00:18:30;6.30;99.90
43627;DHT22;29217;52.586;13.442;2024-03-02T00:20:57;6.30;99.90
43627;DHT22;29217;52.586;13.442;2024-03-02T00:23:24;6.30;99.90
43627;DHT22;29217;52.586;13.442;2024-03-02T00:25:51;6.10;99.90
43627;DHT22;29217;52.586;13.442;2024-03-02T00:28:25;6.20;99.90
43627;DHT22;29217;52.586;13.442;2024-03-02T00:33:25;6.00;99.90
43627;DHT22;29217;52.586;13.442;2024-03-02T00:35:51;6.10;99.90
43627;DHT22;29217;52.586;13.442;2024-03-02T00:38:17;6.00;99.90
43627;DHT22;29217;52.586;13.442;2024-03-02T00:40:44;6.10;99.90
43627;DHT22;29217;52.586;13.442;2024-03-02T00:43:38;6.10;99.90
43627;DHT22;29217;52.586;13.442;2024-03-02T00:46:04;6.50;99.90
43627;DHT22;29217;52.586;13.442;2024-03-02T00:48:30;6.40;99.90
43627;DHT22;29217;52.586;13.442;2024-03-02T00:51:03;6.30;99.90
43627;DHT22;29217;52.586;13.442;2024-03-02T00:53:32;6.20;99.90
43627;DHT22;29217;52.586;13.442;2024-03-02T00:55:58;6.60;99.90
43627;DHT22;29217;52.586;13.442;2024-03-02T00:58:25;6.30;99.90
43627;DHT22;29217;52.586;13.442;2024-03-02T01:00:50;6.30;99.90
43627;DHT22;29217;52.586;13.442;2024-03-02T01:03:16;6.50;99.90
43627;DHT22;29217;52.586;13.442;2024-03-02T01:05:42;6.30;99.90
43627;DHT22;29217;52.586;13.442;2024-03-02T01:08:08;6.60;99.90
43627;DHT22;29217;52.586;13.442;2024-03-02T01:10:34;6.50;99.90
43627;DHT22;29217;52.586;13.442;2024-03-02T01:13:00;6.50;99.90
43627;DHT22;29217;52.586;13.442;2024-03-02T01:15:25;6.50;99.90
43627;DHT22;29217;52.586;13.442;2024-03-02T01:17:51;6.70;99.90
43627;DHT22;29217;52.586;13.442;2024-03-02T01:20:16;6.50;99.90
43627;DHT22;29217;52.586;13.442;2024-03-02T01:22:42;6.70;99.90
43627;DHT22;29217;52.586;13.442;2024-03-02T01:25:09;6.60;99.90
43627;DHT22;29217;52.586;13.442;2024-03-02T01:27:34;6.50;99.90
43627;DHT22;29217;52.586;13.442;2024-03-02T01:30:00;6.80;99.90
43627;DHT22;29217;52.586;13.442;2024-03-02T01:32:26;6.70;99.90
43627;DHT22;29217;52.586;13.442;2024-03-02T01:34:51;6.90;99.90
43627;DHT22;29217;52.586;13.442;2024-03-02T01:37:17;6.70;99.90
43627;DHT22;29217;52.586;13.442;2024-03-02T01:39:42;6.80;99.90
43627;DHT22;29217;52.586;13.442;2024-03-02T01:42:08;6.80;99.90
43627;DHT22;29217;52.586;13.442;2024-03-02T01:44:34;6.60;99.90
43627;DHT22;29217;52.586;13.442;2024-03-02T01:46:59;6.80;99.90
43627;DHT22;29217;52.586;13.442;2024-03-02T01:49:25;6.80;99.90
43627;DHT22;29217;52.586;13.442;2024-03-02T01:51:51;6.60;99.90
43627;DHT22;29217;52.586;13.442;2024-03-02T01:54:16;6.70;99.90
43627;DHT22;29217;52.586;13.442;2024-03-02T01:56:42;6.80;99.90
43627;DHT22;29217;52.586;13.442;2024-03-02T01:59:07;6.80;99.90
43627;DHT22;29217;52.586;13.442;2024-03-02T02:01:33;7.00;99.90
43627;DHT22;29217;52.586;13.442;2024-03-02T02:03:59;7.00;99.90
43627;DHT22;29217;52.586;13.442;2024-03-02T02:06:24;7.00;99.90
43627;DHT22;29217;52.586;13.442;2024-03-02T02:08:50;7.20;99.90
43627;DHT22;29217;52.586;13.442;2024-03-02T02:11:17;6.80;99.90
43627;DHT22;29217;52.586;13.442;2024-03-02T02:13:42;6.70;99.90
43627;DHT22;29217;52.586;13.442;2024-03-02T02:16:08;6.50;99.90
43627;DHT22;29217;52.586;13.442;2024-03-02T02:18:34;6.80;99.90
43627;DHT22;29217;52.586;13.442;2024-03-02T02:21:01;6.90;99.90
43627;DHT22;29217;52.586;13.442;2024-03-02T02:23:27;6.80;99.90
43627;DHT22;29217;52.586;13.442;2024-03-02T02:25:52;7.10;99.90
43627;DHT22;29217;52.586;13.442;2024-03-02T02:28:18;7.10;99.90
43627;DHT22;29217;52.586;13.442;2024-03-02T02:30:44;6.70;99.90
43627;DHT22;29217;52.586;13.442;2024-03-02T02:33:09;7.10;99.90
43627;DHT22;29217;52.586;13.442;2024-03-02T02:35:35;7.10;99.90
43627;DHT22;29217;52.586;13.442;2024-03-02T02:38:02;7.00;99.90
43627;DHT22;29217;52.586;13.442;2024-03-02T02:40:28;6.90;99.90
43627;DHT22;29217;52.586;13.442;2024-03-02T02:42:57;7.10;99.90
43627;DHT22;29217;52.586;13.442;2024-03-02T02:45:24;7.10;99.90
43627;DHT22;29217;52.586;13.442;2024-03-02T02:47:50;6.90;99.90
43627;DHT22;29217;52.586;13.442;2024-03-02T02:50:15;7.00;99.90
43627;DHT22;29217;52.586;13.442;2024-03-02T02:52:42;7.10;99.90
43627;DHT22;29217;52.586;13.442;2024-03-02T02:55:09;7.20;99.90
43627;DHT22;29217;52.586;13.442;2024-03-02T02:57:35;6.90;99.90
43627;DHT22;29217;52.586;13.442;2024-03-02T03:00:07;7.20;99.90
43627;DHT22;29217;52.586;13.442;2024-03-02T03:02:38;7.10;99.90
43627;DHT22;29217;52.586;13.442;2024-03-02T03:05:05;7.30;99.90
43627;DHT22;29217;52.586;13.442;2024-03-02T03:07:32;7.10;99.90
43627;DHT22;29217;52.586;13.442;2024-03-02T03:09:58;7.20;99.90
43627;DHT22;29217;52.586;13.442;2024-03-02T03:12:24;7.20;99.90
43627;DHT22;29217;52.586;13.442;2024-03-02T03:14:49;7.40;99.90
43627;DHT22;29217;52.586;13.442;2024-03-02T03:17:15;7.10;99.90
43627;DHT22;29217;52.586;13.442;2024-03-02T03:19:40;7.30;99.90
43627;DHT22;29217;52.586;13.442;2024-03-02T03:22:06;7.30;99.90
43627;DHT22;29217;52.586;13.442;2024-03-02T03:24:32;7.40;99.90
43627;DHT22;29217;52.586;13.442;2024-03-02T03:26:58;7.30;99.90
43627;DHT22;29217;52.586;13.442;2024-03-02T03:29:23;7.10;99.90
43627;DHT22;29217;52.586;13.442;2024-03-02T03:31:49;7.50;99.90
43627;DHT22;29217;52.586;13.442;2024-03-02T03:34:15;7.30;99.90
43627;DHT22;29217;52.586;13.442;2024-03-02T03:36:42;7.60;99.90
43627;DHT22;29217;52.586;13.442;2024-03-02T03:39:07;7.30;99.90
43627;DHT22;29217;52.586;13.442;2024-03-02T03:41:33;7.40;99.90
43627;DHT22;29217;52.586;13.442;2024-03-02T03:43:58;7.40;99.90
43627;DHT22;29217;52.586;13.442;2024-03-02T03:46:24;7.30;99.90
43627;DHT22;29217;52.586;13.442;2024-03-02T03:48:50;7.60;99.90
43627;DHT22;29217;52.586;13.442;2024-03-02T03:51:16;7.70;99.90
43627;DHT22;29217;52.586;13.442;2024-03-02T03:53:41;7.60;99.90
43627;DHT22;29217;52.586;13.442;2024-03-02T03:56:07;7.60;99.90
43627;DHT22;29217;52.586;13.442;2024-03-02T03:58:32;7.60;99.90
43627;DHT22;29217;52.586;13.442;2024-03-02T04:00:58;7.70;99.90
43627;DHT22;29217;52.586;13.442;2024-03-02T04:03:24;7.90;99.90
43627;DHT22;29217;52.586;13.442;2024-03-02T04:05:49;7.80;99.90
43627;DHT22;29217;52.586;13.442;2024-03-02T04:08:15;7.70;99.90
43627;DHT22;29217;52.586;13.442;2024-03-02T04:10:41;7.80;99.90
43627;DHT22;29217;52.586;13.442;2024-03-02T04:13:07;7.80;99.90
43627;DHT22;29217;52.586;13.442;2024-03-02T04:15:33;7.90;99.90
43627;DHT22;29217;52.586;13.442;2024-03-02T04:17:58;7.80;99.90
43627;DHT22;29217;52.586;13.442;2024-03-02T04:20:24;7.70;99.90
43627;DHT22;29217;52.586;13.442;2024-03-02T04:22:50;7.90;99.90
43627;DHT22;29217;52.586;13.442;2024-03-02T04:25:16;7.80;99.90
43627;DHT22;29217;52.586;13.442;2024-03-02T04:27:41;7.90;99.90
43627;DHT22;29217;52.586;13.442;2024-03-02T04:30:07;7.80;99.90
43627;DHT22;29217;52.586;13.442;2024-03-02T04:32:33;7.80;99.90
43627;DHT22;29217;52.586;13.442;2024-03-02T04:34:59;8.00;99.90
43627;DHT22;29217;52.586;13.442;2024-03-02T04:37:24;8.00;99.90
43627;DHT22;29217;52.586;13.442;2024-03-02T04:39:50;7.90;99.90
43627;DHT22;29217;52.586;13.442;2024-03-02T04:42:15;8.00;99.90
43627;DHT22;29217;52.586;13.442;2024-03-02T04:44:41;8.10;99.90
43627;DHT22;29217;52.586;13.442;2024-03-02T04:47:07;8.00;99.90
43627;DHT22;29217;52.586;13.442;2024-03-02T04:49:32;8.00;99.90
43627;DHT22;29217;52.586;13.442;2024-03-02T04:51:58;8.00;99.90
43627;DHT22;29217;52.586;13.442;2024-03-02T04:54:23;8.00;99.90
43627;DHT22;29217;52.586;13.442;2024-03-02T04:56:49;8.00;99.90
43627;DHT22;29217;52.586;13.442;2024-03-02T04:59:18;8.10;99.90
43627;DHT22;29217;52.586;13.442;2024-03-02T05:01:44;7.80;99.90
43627;DHT22;29217;52.586;13.442;2024-03-02T05:04:10;8.00;99.90
43627;DHT22;29217;52.586;13.442;2024-03-02T05:06:40;7.80;99.90
43627;DHT22;29217;52.586;13.442;2024-03-02T05:09:09;8.20;99.90
43627;DHT22;29217;52.586;13.442;2024-03-02T05:11:35;8.10;99.90
43627;DHT22;29217;52.586;13.442;2024-03-02T05:14:04;8.00;99.90
43627;DHT22;29217;52.586;13.442;2024-03-02T05:16:33;8.00;99.90
43627;DHT22;29217;52.586;13.442;2024-03-02T05:18:59;8.10;99.90
43627;DHT22;29217;52.586;13.442;2024-03-02T05:21:25;8.20;99.90
43627;DHT22;29217;52.586;13.442;2024-03-02T05:23:50;8.10;99.90
43627;DHT22;29217;52.586;13.442;2024-03-02T05:26:16;8.20;99.90
43627;DHT22;29217;52.586;13.442;2024-03-02T05:28:42;8.10;99.90
43627;DHT22;29217;52.586;13.442;2024-03-02T05:31:10;8.20;99.90
43627;DHT22;29217;52.586;13.442;2024-03-02T05:33:39;8.20;99.90
43627;DHT22;29217;52.586;13.442;2024-03-02T05:36:05;8.30;99.90
43627;DHT22;29217;52.586;13.442;2024-03-02T05:38:31;8.20;99.90
43627;DHT22;29217;52.586;13.442;2024-03-02T05:40:56;8.30;99.90
43627;DHT22;29217;52.586;13.442;2024-03-02T05:43:22;8.40;99.90
43627;DHT22;29217;52.586;13.442;2024-03-02T05:45:48;8.40;99.90
43627;DHT22;29217;52.586;13.442;2024-03-02T05:48:13;8.40;99.90
43627;DHT22;29217;52.586;13.442;2024-03-02T05:50:39;8.40;99.90
43627;DHT22;29217;52.586;13.442;2024-03-02T05:53:04;8.40;99.90
43627;DHT22;29217;52.586;13.442;2024-03-02T05:55:30;8.30;99.90
43627;DHT22;29217;52.586;13.442;2024-03-02T05:57:56;8.40;99.90
43627;DHT22;29217;52.586;13.442;2024-03-02T06:00:31;8.50;99.90
43627;DHT22;29217;52.586;13.442;2024-03-02T06:02:57;8.50;99.90
43627;DHT22;29217;52.586;13.442;2024-03-02T06:05:23;8.50;99.90
43627;DHT22;29217;52.586;13.442;2024-03-02T06:07:49;8.60;99.90
43627;DHT22;29217;52.586;13.442;2024-03-02T06:10:14;8.60;99.90
43627;DHT22;29217;52.586;13.442;2024-03-02T06:12:40;8.60;99.90
43627;DHT22;29217;52.586;13.442;2024-03-02T06:15:06;8.50;99.90
43627;DHT22;29217;52.586;13.442;2024-03-02T06:17:32;8.50;99.90
43627;DHT22;29217;52.586;13.442;2024-03-02T06:19:57;8.60;99.90
43627;DHT22;29217;52.586;13.442;2024-03-02T06:22:23;8.40;99.90
43627;DHT22;29217;52.586;13.442;2024-03-02T06:24:50;8.60;99.90
43627;DHT22;29217;52.586;13.442;2024-03-02T06:27:16;8.50;99.90
43627;DHT22;29217;52.586;13.442;2024-03-02T06:29:42;8.50;99.90
43627;DHT22;29217;52.586;13.442;2024-03-02T06:32:07;8.50;99.90
43627;DHT22;29217;52.586;13.442;2024-03-02T06:34:33;8.70;99.90
43627;DHT22;29217;52.586;13.442;2024-03-02T06:36:59;8.70;99.90
43627;DHT22;29217;52.586;13.442;2024-03-02T06:39:25;8.50;99.90
43627;DHT22;29217;52.586;13.442;2024-03-02T06:41:51;8.50;99.90
43627;DHT22;29217;52.586;13.442;2024-03-02T06:44:17;8.50;99.90
43627;DHT22;29217;52.586;13.442;2024-03-02T06:46:42;8.50;99.90
43627;DHT22;29217;52.586;13.442;2024-03-02T06:49:08;8.50;99.90
43627;DHT22;29217;52.586;13.442;2024-03-02T06:51:35;8.70;99.90
43627;DHT22;29217;52.586;13.442;2024-03-02T06:54:01;8.70;99.90
43627;DHT22;29217;52.586;13.442;2024-03-02T06:56:26;8.60;99.90
43627;DHT22;29217;52.586;13.442;2024-03-02T06:58:52;8.50;99.90
43627;DHT22;29217;52.586;13.442;2024-03-02T07:01:18;8.60;99.90
43627;DHT22;29217;52.586;13.442;2024-03-02T07:03:43;8.80;99.90
43627;DHT22;29217;52.586;13.442;2024-03-02T07:06:09;8.60;99.90
43627;DHT22;29217;52.586;13.442;2024-03-02T07:08:35;8.80;99.90
43627;DHT22;29217;52.586;13.442;2024-03-02T07:11:00;8.80;99.90
43627;DHT22;29217;52.586;13.442;2024-03-02T07:13:26;8.70;99.90
43627;DHT22;29217;52.586;13.442;2024-03-02T07:15:52;8.70;99.90
43627;DHT22;29217;52.586;13.442;2024-03-02T07:18:30;8.90;99.90
43627;DHT22;29217;52.586;13.442;2024-03-02T07:20:56;8.90;99.90
43627;DHT22;29217;52.586;13.442;2024-03-02T07:23:24;8.80;99.90
43627;DHT22;29217;52.586;13.442;2024-03-02T07:25:53;8.70;99.90
43627;DHT22;29217;52.586;13.442;2024-03-02T07:28:24;8.80;99.90
43627;DHT22;29217;52.586;13.442;2024-03-02T07:31:00;8.80;99.90
43627;DHT22;29217;52.586;13.442;2024-03-02T07:33:26;8.80;99.90
43627;DHT22;29217;52.586;13.442;2024-03-02T07:35:53;8.70;99.90
43627;DHT22;29217;52.586;13.442;2024-03-02T07:38:19;8.60;99.90
43627;DHT22;29217;52.586;13.442;2024-03-02T07:40:44;8.70;99.90
43627;DHT22;29217;52.586;13.442;2024-03-02T07:43:10;8.80;99.90
43627;DHT22;29217;52.586;13.442;2024-03-02T07:45:36;8.90;99.90
43627;DHT22;29217;52.586;13.442;2024-03-02T07:48:03;8.90;99.90
43627;DHT22;29217;52.586;13.442;2024-03-02T07:50:29;8.70;99.90
43627;DHT22;29217;52.586;13.442;2024-03-02T07:53:00;8.90;99.90
43627;DHT22;29217;52.586;13.442;2024-03-02T07:55:26;9.00;99.90
43627;DHT22;29217;52.586;13.442;2024-03-02T07:57:51;8.80;99.90
43627;DHT22;29217;52.586;13.442;2024-03-02T08:00:17;9.10;99.90
43627;DHT22;29217;52.586;13.442;2024-03-02T08:02:43;8.70;99.90
43627;DHT22;29217;52.586;13.442;2024-03-02T08:05:08;8.70;99.90
43627;DHT22;29217;52.586;13.442;2024-03-02T08:07:34;8.90;99.90
43627;DHT22;29217;52.586;13.442;2024-03-02T08:10:00;8.80;99.90
43627;DHT22;29217;52.586;13.442;2024-03-02T08:12:26;8.90;99.90
43627;DHT22;29217;52.586;13.442;2024-03-02T08:14:51;8.90;99.90
43627;DHT22;29217;52.586;13.442;2024-03-02T08:17:17;9.00;99.90
43627;DHT22;29217;52.586;13.442;2024-03-02T08:19:43;9.00;99.90
43627;DHT22;29217;52.586;13.442;2024-03-02T08:22:09;8.80;99.90
43627;DHT22;29217;52.586;13.442;2024-03-02T08:24:35;8.90;99.90
43627;DHT22;29217;52.586;13.442;2024-03-02T08:27:01;9.00;99.90
43627;DHT22;29217;52.586;13.442;2024-03-02T08:29:27;8.90;99.90
43627;DHT22;29217;52.586;13.442;2024-03-02T08:31:53;9.00;99.90
43627;DHT22;29217;52.586;13.442;2024-03-02T08:34:19;9.00;99.90
43627;DHT22;29217;52.586;13.442;2024-03-02T08:36:46;8.90;99.90
43627;DHT22;29217;52.586;13.442;2024-03-02T08:39:12;9.00;99.90
43627;DHT22;29217;52.586;13.442;2024-03-02T08:41:45;9.20;99.90
43627;DHT22;29217;52.586;13.442;2024-03-02T08:44:11;9.00;99.90
43627;DHT22;29217;52.586;13.442;2024-03-02T08:46:38;9.00;99.90
43627;DHT22;29217;52.586;13.442;2024-03-02T08:49:04;8.90;99.90
43627;DHT22;29217;52.586;13.442;2024-03-02T08:51:30;8.90;99.90
43627;DHT22;29217;52.586;13.442;2024-03-02T08:53:56;9.00;99.90
43627;DHT22;29217;52.586;13.442;2024-03-02T08:56:26;9.00;99.90
43627;DHT22;29217;52.586;13.442;2024-03-02T08:58:52;9.00;99.90
43627;DHT22;29217;52.586;13.442;2024-03-02T09:01:18;9.10;99.90
43627;DHT22;29217;52.586;13.442;2024-03-02T09:03:45;9.00;99.90
43627;DHT22;29217;52.586;13.442;2024-03-02T09:06:11;9.00;99.90
43627;DHT22;29217;52.586;13.442;2024-03-02T09:08:37;9.00;99.90
43627;DHT22;29217;52.586;13.442;2024-03-02T09:11:04;9.00;99.90
43627;DHT22;29217;52.586;13.442;2024-03-02T09:13:31;9.10;99.90
43627;DHT22;29217;52.586;13.442;2024-03-02T09:15:56;9.00;99.90
43627;DHT22;29217;52.586;13.442;2024-03-02T09:18:22;9.00;99.90
43627;DHT22;29217;52.586;13.442;2024-03-02T09:20:48;9.10;99.90
43627;DHT22;29217;52.586;13.442;2024-03-02T09:23:13;9.00;99.90
43627;DHT22;29217;52.586;13.442;2024-03-02T09:25:39;9.00;99.90
43627;DHT22;29217;52.586;13.442;2024-03-02T09:28:05;9.10;99.90
43627;DHT22;29217;52.586;13.442;2024-03-02T09:30:30;9.00;99.90
43627;DHT22;29217;52.586;13.442;2024-03-02T09:32:56;9.10;99.90
43627;DHT22;29217;52.586;13.442;2024-03-02T09:35:22;9.30;99.90
43627;DHT22;29217;52.586;13.442;2024-03-02T09:37:47;9.40;99.90
43627;DHT22;29217;52.586;13.442;2024-03-02T09:40:13;9.40;99.90
43627;DHT22;29217;52.586;13.442;2024-03-02T09:42:40;9.40;99.90
43627;DHT22;29217;52.586;13.442;2024-03-02T09:45:06;9.40;99.90
43627;DHT22;29217;52.586;13.442;2024-03-02T09:47:32;9.40;99.90
43627;DHT22;29217;52.586;13.442;2024-03-02T09:49:58;9.40;99.90
43627;DHT22;29217;52.586;13.442;2024-03-02T09:52:24;9.50;99.90
43627;DHT22;29217;52.586;13.442;2024-03-02T09:54:51;9.70;99.90
43627;DHT22;29217;52.586;13.442;2024-03-02T09:57:16;9.70;99.90
43627;DHT22;29217;52.586;13.442;2024-03-02T09:59:42;9.90;99.90
43627;DHT22;29217;52.586;13.442;2024-03-02T10:02:08;10.00;99.90
43627;DHT22;29217;52.586;13.442;2024-03-02T10:04:34;10.00;99.90
43627;DHT22;29217;52.586;13.442;2024-03-02T10:07:13;10.10;99.90
43627;DHT22;29217;52.586;13.442;2024-03-02T10:09:40;10.20;99.90
43627;DHT22;29217;52.586;13.442;2024-03-02T10:14:33;10.30;99.90
43627;DHT22;29217;52.586;13.442;2024-03-02T13:17:04;14.10;99.90
43627;DHT22;29217;52.586;13.442;2024-03-02T13:19:30;14.00;99.90
43627;DHT22;29217;52.586;13.442;2024-03-02T13:21:57;14.00;99.90
43627;DHT22;29217;52.586;13.442;2024-03-02T13:24:23;14.10;99.90
43627;DHT22;29217;52.586;13.442;2024-03-02T13:26:53;14.30;99.90
43627;DHT22;29217;52.586;13.442;2024-03-02T13:29:22;14.50;99.90
43627;DHT22;29217;52.586;13.442;2024-03-02T13:31:48;14.60;99.90
43627;DHT22;29217;52.586;13.442;2024-03-02T13:34:14;14.80;99.90
43627;DHT22;29217;52.586;13.442;2024-03-02T13:36:39;14.80;99.90
43627;DHT22;29217;52.586;13.442;2024-03-02T13:39:05;14.90;99.90
43627;DHT22;29217;52.586;13.442;2024-03-02T13:41:34;15.00;99.90
43627;DHT22;29217;52.586;13.442;2024-03-02T13:44:00;14.90;99.90
43627;DHT22;29217;52.586;13.442;2024-03-02T13:46:27;15.00;99.90
43627;DHT22;29217;52.586;13.442;2024-03-02T13:48:54;15.10;99.90
43627;DHT22;29217;52.586;13.442;2024-03-02T13:53:45;14.90;99.90
43627;DHT22;29217;52.586;13.442;2024-03-02T13:56:11;14.70;99.90
43627;DHT22;29217;52.586;13.442;2024-03-02T13:58:37;14.60;99.90
43627;DHT22;29217;52.586;13.442;2024-03-02T14:01:04;14.30;99.90
43627;DHT22;29217;52.586;13.442;2024-03-02T14:03:30;14.40;99.90
43627;DHT22;29217;52.586;13.442;2024-03-02T14:05:56;14.40;99.90
43627;DHT22;29217;52.586;13.442;2024-03-02T14:08:22;14.30;99.90
43627;DHT22;29217;52.586;13.442;2024-03-02T14:10:48;14.30;99.90
43627;DHT22;29217;52.586;13.442;2024-03-02T14:13:14;14.10;99.90
43627;DHT22;29217;52.586;13.442;2024-03-02T14:15:41;14.30;99.90
43627;DHT22;29217;52.586;13.442;2024-03-02T14:18:06;14.40;99.90
43627;DHT22;29217;52.586;13.442;2024-03-02T14:20:32;14.40;99.90
43627;DHT22;29217;52.586;13.442;2024-03-02T14:22:58;14.60;99.90
43627;DHT22;29217;52.586;13.442;2024-03-02T14:25:29;14.50;99.90
43627;DHT22;29217;52.586;13.442;2024-03-02T14:27:58;14.60;99.90
43627;DHT22;29217;52.586;13.442;2024-03-02T14:30:24;14.60;99.90
43627;DHT22;29217;52.586;13.442;2024-03-02T14:32:49;14.40;99.90
43627;DHT22;29217;52.586;13.442;2024-03-02T14:35:16;14.50;99.90
43627;DHT22;29217;52.586;13.442;2024-03-02T14:37:42;14.50;99.90
43627;DHT22;29217;52.586;13.442;2024-03-02T14:40:08;14.50;99.90
43627;DHT22;29217;52.586;13.442;2024-03-02T14:42:35;14.40;99.90
43627;DHT22;29217;52.586;13.442;2024-03-02T14:45:01;14.30;99.90
43627;DHT22;29217;52.586;13.442;2024-03-02T14:47:29;14.20;99.90
43627;DHT22;29217;52.586;13.442;2024-03-02T14:49:56;14.10;99.90
43627;DHT22;29217;52.586;13.442;2024-03-02T14:52:22;14.00;99.90
43627;DHT22;29217;52.586;13.442;2024-03-02T14:54:47;14.10;99.90
43627;DHT22;29217;52.586;13.442;2024-03-02T14:57:14;13.80;99.90
43627;DHT22;29217;52.586;13.442;2024-03-02T14:59:39;13.80;99.90
43627;DHT22;29217;52.586;13.442;2024-03-02T15:02:07;13.90;99.90
43627;DHT22;29217;52.586;13.442;2024-03-02T15:04:33;13.70;99.90
43627;DHT22;29217;52.586;13.442;2024-03-02T15:06:59;13.60;99.90
43627;DHT22;29217;52.586;13.442;2024-03-02T15:09:24;13.60;99.90
43627;DHT22;29217;52.586;13.442;2024-03-02T15:11:50;13.40;99.90
43627;DHT22;29217;52.586;13.442;2024-03-02T15:14:16;13.30;99.90
43627;DHT22;29217;52.586;13.442;2024-03-02T15:16:42;13.30;99.90
43627;DHT22;29217;52.586;13.442;2024-03-02T15:19:07;13.50;99.90
43627;DHT22;29217;52.586;13.442;2024-03-02T15:21:33;13.70;99.90
43627;DHT22;29217;52.586;13.442;2024-03-02T15:23:59;13.60;99.90
43627;DHT22;29217;52.586;13.442;2024-03-02T15:26:24;13.50;99.90
43627;DHT22;29217;52.586;13.442;2024-03-02T15:28:50;13.50;99.90
43627;DHT22;29217;52.586;13.442;2024-03-02T15:31:15;13.50;99.90
43627;DHT22;29217;52.586;13.442;2024-03-02T15:33:42;13.90;99.90
43627;DHT22;29217;52.586;13.442;2024-03-02T15:36:08;13.80;99.90
43627;DHT22;29217;52.586;13.442;2024-03-02T15:38:33;13.90;99.90
43627;DHT22;29217;52.586;13.442;2024-03-02T15:41:03;13.70;99.90
43627;DHT22;29217;52.586;13.442;2024-03-02T15:43:28;13.60;99.90
43627;DHT22;29217;52.586;13.442;2024-03-02T15:45:56;13.50;99.90
43627;DHT22;29217;52.586;13.442;2024-03-02T15:48:22;13.30;99.90
43627;DHT22;29217;52.586;13.442;2024-03-02T15:50:49;13.30;99.90
43627;DHT22;29217;52.586;13.442;2024-03-02T15:53:15;13.20;99.90
43627;DHT22;29217;52.586;13.442;2024-03-02T15:55:41;13.10;99.90
43627;DHT22;29217;52.586;13.442;2024-03-02T15:58:07;13.00;99.90
43627;DHT22;29217;52.586;13.442;2024-03-02T16:00:32;13.00;99.90
43627;DHT22;29217;52.586;13.442;2024-03-02T16:02:58;12.90;99.90
43627;DHT22;29217;52.586;13.442;2024-03-02T16:05:24;12.90;99.90
43627;DHT22;29217;52.586;13.442;2024-03-02T16:07:49;12.70;99.90
43627;DHT22;29217;52.586;13.442;2024-03-02T16:10:15;12.60;99.90
43627;DHT22;29217;52.586;13.442;2024-03-02T16:12:41;12.50;99.90
43627;DHT22;29217;52.586;13.442;2024-03-02T16:15:07;12.50;99.90
43627;DHT22;29217;52.586;13.442;2024-03-02T16:17:34;12.30;99.90
43627;DHT22;29217;52.586;13.442;2024-03-02T16:20:00;12.40;99.90
43627;DHT22;29217;52.586;13.442;2024-03-02T16:22:25;12.50;99.90
43627;DHT22;29217;52.586;13.442;2024-03-02T16:24:51;12.20;99.90
43627;DHT22;29217;52.586;13.442;2024-03-02T16:27:16;12.00;99.90
43627;DHT22;29217;52.586;13.442;2024-03-02T16:29:43;12.00;99.90
43627;DHT22;29217;52.586;13.442;2024-03-02T16:32:09;11.80;99.90
43627;DHT22;29217;52.586;13.442;2024-03-02T16:34:34;11.90;99.90
43627;DHT22;29217;52.586;13.442;2024-03-02T16:37:01;11.80;99.90
43627;DHT22;29217;52.586;13.442;2024-03-02T16:39:28;11.80;99.90
43627;DHT22;29217;52.586;13.442;2024-03-02T16:41:54;11.70;99.90
43627;DHT22;29217;52.586;13.442;2024-03-02T16:44:19;11.80;99.90
43627;DHT22;29217;52.586;13.442;2024-03-02T16:46:45;11.70;99.90
43627;DHT22;29217;52.586;13.442;2024-03-02T16:49:12;11.50;99.90
43627;DHT22;29217;52.586;13.442;2024-03-02T16:51:39;11.50;99.90
43627;DHT22;29217;52.586;13.442;2024-03-02T16:54:04;11.50;99.90
43627;DHT22;29217;52.586;13.442;2024-03-02T16:56:43;11.30;99.90
43627;DHT22;29217;52.586;13.442;2024-03-02T16:59:10;11.00;99.90
43627;DHT22;29217;52.586;13.442;2024-03-02T17:01:36;11.30;99.90
43627;DHT22;29217;52.586;13.442;2024-03-02T17:04:02;11.10;99.90
43627;DHT22;29217;52.586;13.442;2024-03-02T17:06:29;11.20;99.90
43627;DHT22;29217;52.586;13.442;2024-03-02T17:08:56;11.10;99.90
43627;DHT22;29217;52.586;13.442;2024-03-02T17:11:21;11.00;99.90
43627;DHT22;29217;52.586;13.442;2024-03-02T17:13:47;10.90;99.90
43627;DHT22;29217;52.586;13.442;2024-03-02T17:16:13;10.90;99.90
43627;DHT22;29217;52.586;13.442;2024-03-02T17:18:39;10.60;99.90
43627;DHT22;29217;52.586;13.442;2024-03-02T17:21:05;10.60;99.90
43627;DHT22;29217;52.586;13.442;2024-03-02T17:23:31;10.50;99.90
43627;DHT22;29217;52.586;13.442;2024-03-02T17:25:57;10.30;99.90
43627;DHT22;29217;52.586;13.442;2024-03-02T17:28:24;10.40;99.90
43627;DHT22;29217;52.586;13.442;2024-03-02T17:30:55;10.30;99.90
43627;DHT22;29217;52.586;13.442;2024-03-02T17:33:20;10.30;99.90
43627;DHT22;29217;52.586;13.442;2024-03-02T17:35:46;10.20;99.90
43627;DHT22;29217;52.586;13.442;2024-03-02T17:38:16;10.40;99.90
43627;DHT22;29217;52.586;13.442;2024-03-02T17:40:41;10.20;99.90
43627;DHT22;29217;52.586;13.442;2024-03-02T17:43:08;10.20;99.90
43627;DHT22;29217;52.586;13.442;2024-03-02T17:45:34;10.10;99.90
43627;DHT22;29217;52.586;13.442;2024-03-02T17:48:00;10.00;99.90
43627;DHT22;29217;52.586;13.442;2024-03-02T17:50:25;10.00;99.90
43627;DHT22;29217;52.586;13.442;2024-03-02T17:55:17;9.70;99.90
43627;DHT22;29217;52.586;13.442;2024-03-02T18:19:45;9.20;99.90
43627;DHT22;29217;52.586;13.442;2024-03-02T18:22:11;9.10;99.90
43627;DHT22;29217;52.586;13.442;2024-03-02T18:24:36;8.90;99.90
43627;DHT22;29217;52.586;13.442;2024-03-02T18:27:02;8.80;99.90
43627;DHT22;29217;52.586;13.442;2024-03-02T18:29:28;8.80;99.90
43627;DHT22;29217;52.586;13.442;2024-03-02T18:48:55;8.50;99.90
43627;DHT22;29217;52.586;13.442;2024-03-02T18:51:21;8.60;99.90
43627;DHT22;29217;52.586;13.442;2024-03-02T18:53:51;8.60;99.90
43627;DHT22;29217;52.586;13.442;2024-03-02T18:56:16;8.40;99.90
43627;DHT22;29217;52.586;13.442;2024-03-02T18:58:42;8.40;99.90
43627;DHT22;29217;52.586;13.442;2024-03-02T19:01:07;8.50;99.90
43627;DHT22;29217;52.586;13.442;2024-03-02T19:03:34;8.50;99.90
43627;DHT22;29217;52.586;13.442;2024-03-02T19:05:59;8.70;99.90
43627;DHT22;29217;52.586;13.442;2024-03-02T19:08:27;8.60;99.90